Latest Weather Observations for Adelaide Airport

IDS60901

Issued at 7:25 pm CST Saturday 20 September 2014 (issued every 10 minutes, with the page automatically refreshed every 10 minutes)

About weather observations | Map of Adelaide area stations | Latest observations for Adelaide area | Other Formats
Station Details ID: 023034 Name: ADELAIDE AIRPORT Lat: -34.95 Lon: 138.52 Height: 2.0 m
Data from the previous 72 hours. | See also: Recent months at Adelaide Airport
Date/Time
CST
Tmp

°C
App
Tmp
°C
Dew
Point
°C
Rel
Hum
%
Delta-T

°C
Wind Press
QNH
hPa
Press
MSL
hPa
Rain
since
9 am
mm
Dir
 
Spd
km/h
Gust
km/h
Spd
kts
Gust
kts
20/07:00pm 18.1 11.7 -1.5 26 8.3 E 22 30 12 16 1026.4 - 0.0
20/06:30pm 17.9 11.8 0.1 30 7.7 ESE 22 32 12 17 1026.0 - 0.0
20/06:00pm 18.7 13.2 1.8 32 7.6 ESE 20 28 11 15 1025.9 1025.9 0.0
20/05:30pm 18.3 14.1 4.0 38 6.8 SSW 15 19 8 10 1025.6 - 0.0
20/05:00pm 19.3 14.7 3.5 35 7.4 SSW 17 22 9 12 1025.1 - 0.0
20/04:30pm 19.8 15.1 3.1 33 7.8 SSW 17 20 9 11 1024.9 - 0.0
20/04:00pm 20.3 15.1 2.3 30 8.3 SSW 19 24 10 13 1024.7 - 0.0
20/03:30pm 20.1 14.1 1.2 28 8.6 SW 22 28 12 15 1024.6 - 0.0
20/03:00pm 20.2 14.8 2.5 31 8.2 SW 20 26 11 14 1024.6 1024.6 0.0
20/02:30pm 21.1 16.0 0.6 25 9.2 WSW 17 19 9 10 1024.5 - 0.0
20/02:00pm 19.8 15.2 3.7 34 7.6 WSW 17 20 9 11 1024.6 - 0.0
20/01:30pm 19.9 15.9 4.8 37 7.3 SW 15 19 8 10 1024.7 - 0.0
20/01:00pm 18.9 14.5 5.0 40 6.7 WSW 17 20 9 11 1024.9 - 0.0
20/12:30pm 18.0 13.5 5.9 45 5.9 WSW 19 22 10 12 1025.2 - 0.0
20/12:00pm 17.9 13.8 6.3 46 5.7 WSW 17 22 9 12 1025.6 1025.6 0.0
20/11:30am 18.0 14.4 6.9 48 5.5 WSW 15 19 8 10 1025.9 - 0.0
20/11:00am 17.6 14.7 6.6 48 5.4 NW 11 17 6 9 1026.3 - 0.0
20/10:30am 20.4 15.5 -0.4 25 9.1 N 15 20 8 11 1026.5 - 0.0
20/10:00am 19.8 14.9 -0.5 25 8.9 NE 15 19 8 10 1026.6 - 0.0
20/09:30am 18.8 14.0 -0.1 28 8.2 NE 15 22 8 12 1026.6 - 0.0
20/09:00am 18.0 12.2 -0.1 29 7.8 NE 20 26 11 14 1026.3 1026.3 0.2
20/08:30am 17.3 11.5 -0.3 30 7.5 NE 20 26 11 14 1026.0 - 0.2
20/08:00am 16.3 10.7 0.1 33 6.9 ENE 19 28 10 15 1025.8 - 0.2
20/07:30am 14.8 10.8 0.3 37 6.1 NE 11 15 6 8 1025.4 - 0.2
20/07:00am 11.9 8.1 1.8 50 4.3 NE 11 13 6 7 1024.9 - 0.2
20/06:30am 11.1 6.4 0.9 49 4.2 ENE 15 19 8 10 1024.6 - 0.2
20/06:00am 9.6 5.3 0.7 54 3.6 ENE 13 17 7 9 1024.3 1024.3 0.2
20/05:30am 9.9 5.9 0.2 51 3.9 NE 11 17 6 9 1024.1 - 0.2
20/05:00am 9.8 5.2 1.3 55 3.5 NE 15 19 8 10 1023.5 - 0.2
20/04:30am 11.2 6.4 0.4 47 4.4 ENE 15 19 8 10 1023.2 - 0.2
20/04:00am 11.6 6.9 0.7 47 4.5 ENE 15 20 8 11 1023.0 - 0.2
20/03:30am 11.7 6.9 0.2 45 4.7 ENE 15 20 8 11 1023.0 - 0.2
20/03:00am 12.3 7.1 0.1 43 5.0 ENE 17 22 9 12 1023.0 1023.0 0.2
20/02:30am 12.7 6.9 0.1 42 5.2 ENE 20 28 11 15 1022.8 - 0.2
20/02:00am 12.8 7.0 0.2 42 5.2 ENE 20 28 11 15 1022.9 - 0.2
20/01:30am 11.2 6.5 1.1 50 4.2 E 15 19 8 10 1023.2 - 0.2
20/01:00am 12.4 7.4 1.2 46 4.7 E 17 22 9 12 1023.2 - 0.2
20/12:30am 12.8 7.8 1.2 45 4.9 E 17 24 9 13 1023.1 - 0.2
20/12:00am 13.0 7.1 1.5 45 4.9 E 22 32 12 17 1023.1 1023.1 0.2
 
Date/Time
CST
Tmp

°C
App
Tmp
°C
Dew
Point
°C
Rel
Hum
%
Delta-T

°C
Wind Press
QNH
hPa
Press
MSL
hPa
Rain
since
9 am
mm
Dir
 
Spd
km/h
Gust
km/h
Spd
kts
Gust
kts
19/11:30pm 12.1 7.2 2.0 50 4.3 E 17 26 9 14 1023.2 - 0.2
19/11:00pm 11.7 7.3 2.7 54 3.9 E 15 20 8 11 1023.4 - 0.2
19/10:30pm 11.7 7.4 3.0 55 3.8 E 15 20 8 11 1023.6 - 0.2
19/10:00pm 11.8 8.3 3.7 57 3.6 E 11 15 6 8 1023.7 - 0.2
19/09:30pm 12.7 8.8 3.5 53 4.1 E 13 17 7 9 1023.8 - 0.2
19/09:00pm 13.0 8.1 3.9 54 4.1 E 19 26 10 14 1023.9 1023.9 0.2
19/08:30pm 13.5 7.4 2.8 48 4.7 ESE 24 32 13 17 1023.8 - 0.2
19/08:00pm 12.8 9.6 3.3 52 4.2 ESE 9 11 5 6 1023.8 - 0.2
19/07:30pm 13.9 11.5 4.3 52 4.4 ESE 6 7 3 4 1023.7 - 0.2
19/07:00pm 13.7 10.8 4.5 54 4.2 SSE 9 13 5 7 1023.5 - 0.2
19/06:30pm 14.8 11.0 4.1 48 4.9 SSE 13 17 7 9 1023.2 - 0.2
19/06:00pm 15.5 11.5 4.8 49 5.0 SSE 15 20 8 11 1023.0 1023.0 0.2
19/05:30pm 16.2 12.3 5.5 49 5.1 SSW 15 19 8 10 1022.9 - 0.2
19/05:00pm 16.4 11.4 4.4 45 5.6 SSW 20 24 11 13 1022.8 - 0.2
19/04:30pm 16.6 12.1 4.1 43 5.8 SSW 17 22 9 12 1022.7 - 0.2
19/04:00pm 17.2 12.1 3.0 38 6.5 S 19 24 10 13 1022.8 - 0.2
19/03:30pm 16.4 11.6 4.7 46 5.5 SSW 19 26 10 14 1023.0 - 0.2
19/03:00pm 17.0 11.8 2.6 38 6.5 SSW 19 24 10 13 1023.1 1023.1 0.2
19/02:30pm 17.1 11.9 3.7 41 6.2 SW 20 26 11 14 1023.4 - 0.2
19/02:00pm 16.8 12.0 5.8 48 5.3 SW 20 26 11 14 1023.4 - 0.2
19/01:30pm 16.0 11.3 6.0 51 4.8 SW 20 26 11 14 1023.7 - 0.2
19/01:00pm 15.9 11.4 6.2 52 4.7 SW 19 26 10 14 1024.0 - 0.0
19/12:30pm 15.2 10.7 6.0 54 4.4 SW 19 26 10 14 1024.5 - 0.0
19/12:00pm 15.7 13.8 7.4 57 4.1 E 7 17 4 9 1024.8 1024.8 0.0
19/11:30am 16.5 12.7 1.5 36 6.6 NE 11 15 6 8 1025.1 - 0.0
19/11:00am 16.2 10.0 2.0 38 6.3 NNE 24 26 13 14 1025.3 - 0.0
19/10:30am 16.8 11.7 2.9 39 6.3 NE 19 28 10 15 1025.7 - 0.0
19/10:00am 16.7 12.0 3.1 40 6.2 NE 17 28 9 15 1025.9 - 0.0
19/09:30am 16.2 11.6 3.8 43 5.7 NE 17 22 9 12 1026.1 - 0.0
19/09:00am 15.3 11.5 3.7 46 5.3 ENE 13 19 7 10 1026.2 1026.2 0.0
19/08:30am 14.4 10.3 4.1 50 4.7 ENE 15 19 8 10 1026.1 - 0.0
19/08:00am 13.2 9.5 4.4 55 4.0 ENE 13 17 7 9 1025.8 - 0.0
19/07:30am 11.8 9.1 5.7 66 2.8 ENE 9 11 5 6 1025.6 - 0.0
19/07:00am 8.8 6.9 5.0 77 1.7 ENE 4 6 2 3 1025.4 - 0.0
19/06:30am 7.4 4.4 3.9 78 1.5 ENE 9 11 5 6 1025.2 - 0.0
19/06:00am 6.1 4.0 4.0 86 0.9 ENE 4 7 2 4 1025.0 1025.0 0.0
19/05:30am 7.6 6.5 4.9 83 1.2 CALM 0 0 0 0 1024.8 - 0.0
19/05:00am 7.6 4.7 4.4 80 1.4 E 9 9 5 5 1024.6 - 0.0
19/04:30am 8.3 4.9 4.1 75 1.8 E 11 15 6 8 1024.5 - 0.0
19/04:00am 8.4 5.5 4.5 76 1.7 E 9 11 5 6 1024.5 - 0.0
19/03:30am 9.0 5.0 4.9 75 1.8 ESE 15 20 8 11 1024.7 - 0.0
19/03:00am 9.1 5.1 5.1 76 1.8 ESE 15 19 8 10 1024.6 1024.6 0.0
19/02:30am 8.8 5.6 5.0 77 1.7 E 11 15 6 8 1024.8 - 0.0
19/02:00am 8.9 5.6 4.8 75 1.8 E 11 15 6 8 1025.0 - 0.0
19/01:30am 8.6 5.0 5.0 78 1.6 ESE 13 17 7 9 1025.1 - 0.0
19/01:00am 8.6 5.3 4.7 76 1.7 ESE 11 13 6 7 1025.3 - 0.0
19/12:30am 8.8 5.2 5.0 77 1.7 ESE 13 17 7 9 1025.5 - 0.0
19/12:00am 9.5 6.3 5.3 75 1.9 ESE 11 15 6 8 1025.7 1025.7 0.0
 
Date/Time
CST
Tmp

°C
App
Tmp
°C
Dew
Point
°C
Rel
Hum
%
Delta-T

°C
Wind Press
QNH
hPa
Press
MSL
hPa
Rain
since
9 am
mm
Dir
 
Spd
km/h
Gust
km/h
Spd
kts
Gust
kts
18/11:30pm 10.2 6.7 5.6 73 2.1 ESE 13 15 7 8 1025.8 - 0.0
18/11:00pm 10.2 6.0 5.8 74 2.0 ESE 17 26 9 14 1025.8 - 0.0
18/10:30pm 9.6 5.4 5.6 76 1.8 SE 17 20 9 11 1026.0 - 0.0
18/10:00pm 9.6 6.4 4.9 72 2.1 SE 11 19 6 10 1026.2 - 0.0
18/09:30pm 9.6 6.8 5.1 73 2.0 ESE 9 11 5 6 1026.4 - 0.0
18/09:00pm 9.5 6.5 5.8 78 1.7 ESE 11 13 6 7 1026.5 1026.5 0.0
18/08:30pm 9.9 6.2 6.2 78 1.7 E 15 19 8 10 1026.4 - 0.0
18/08:00pm 10.4 9.1 5.8 73 2.1 ESE 2 9 1 5 1026.5 - 0.0
18/07:30pm 10.8 8.1 5.8 71 2.3 S 9 11 5 6 1026.2 - 0.0
18/07:00pm 11.2 7.8 6.0 70 2.4 SSE 13 15 7 8 1025.8 - 0.0
18/06:30pm 11.9 8.4 7.3 73 2.2 SSE 15 22 8 12 1025.7 - 0.0
18/06:00pm 12.5 8.4 6.1 65 3.0 SSE 17 19 9 10 1025.4 1025.4 0.0
18/05:30pm 13.0 8.6 6.7 65 3.0 SSE 19 22 10 12 1025.3 - 0.0
18/05:00pm 12.9 9.0 7.3 69 2.7 SSW 17 20 9 11 1025.2 - 0.0
18/04:30pm 13.7 9.1 6.3 61 3.5 SW 20 30 11 16 1025.2 - 0.0
18/04:00pm 14.2 9.6 5.5 56 4.1 SW 19 26 10 14 1024.8 - 0.0
18/03:30pm 14.1 11.2 6.4 60 3.7 W 11 15 6 8 1024.8 - 0.0
18/03:00pm 13.3 10.4 6.6 64 3.2 W 11 15 6 8 1024.9 1024.9 0.0
18/02:30pm 12.4 9.3 7.2 70 2.5 W 13 15 7 8 1025.3 - 0.0
18/02:00pm 12.3 8.9 7.5 72 2.3 WSW 15 19 8 10 1025.4 - 0.0
18/01:30pm 12.2 9.1 7.4 72 2.3 SW 13 17 7 9 1025.6 - 0.0
18/01:00pm 11.5 8.3 8.4 81 1.5 S 15 19 8 10 1025.6 - 0.0
18/12:30pm 12.0 8.0 6.7 70 2.5 SW 17 22 9 12 1025.9 - 0.0
18/12:00pm 13.7 10.4 6.3 61 3.5 W 13 19 7 10 1026.0 1026.0 0.0
18/11:30am 12.5 9.9 6.1 65 3.0 W 9 13 5 7 1026.2 - 0.0
18/11:00am 12.4 9.0 5.7 63 3.1 WSW 13 19 7 10 1026.4 - 0.0
18/10:30am 12.8 9.2 6.9 67 2.8 SW 15 19 8 10 1026.6 - 0.0
18/10:00am 12.3 8.7 5.1 61 3.3 SSW 13 17 7 9 1026.9 - 0.0
18/09:30am 12.1 9.6 4.8 61 3.3 S 7 9 4 5 1027.3 - 0.0
18/09:00am 12.4 11.2 4.4 58 3.6 CALM 0 6 0 3 1027.3 1027.3 0.0
18/08:30am 11.6 9.0 4.2 60 3.3 N 7 9 4 5 1027.0 - 0.0
18/08:00am 10.3 9.2 5.2 70 2.3 CALM 0 0 0 0 1026.7 - 0.0
18/07:30am 8.6 7.6 5.5 81 1.4 CALM 0 0 0 0 1026.5 - 0.0
18/07:00am 7.8 6.6 4.8 81 1.3 CALM 0 0 0 0 1026.2 - 0.0
18/06:30am 6.8 4.4 4.2 83 1.1 ENE 6 6 3 3 1025.9 - 0.0
18/06:00am 6.6 4.1 4.0 83 1.1 ENE 6 7 3 4 1025.5 1025.5 0.0
18/05:30am 6.8 5.1 4.0 82 1.2 E 2 7 1 4 1025.2 - 0.0
18/05:00am 6.3 5.0 3.9 85 1.0 CALM 0 0 0 0 1024.9 - 0.0
18/04:30am 6.1 3.9 3.2 82 1.2 NNE 4 9 2 5 1025.0 - 0.0
18/04:00am 5.9 2.7 3.2 83 1.1 ESE 9 11 5 6 1024.9 - 0.0
18/03:30am 5.5 2.2 2.3 80 1.3 ENE 9 9 5 5 1024.9 - 0.0
18/03:00am 5.3 2.0 2.6 83 1.1 NE 9 11 5 6 1025.0 1025.0 0.0
18/02:30am 5.6 1.6 2.6 81 1.2 NE 13 15 7 8 1025.0 - 0.0
18/02:00am 5.3 2.5 3.1 86 0.9 NE 7 13 4 7 1025.3 - 0.0
18/01:30am 6.0 3.1 2.8 80 1.3 N 7 9 4 5 1025.5 - 0.0
18/01:00am 5.5 2.7 2.3 80 1.3 E 6 7 3 4 1025.4 - 0.0
18/12:30am 5.2 2.2 2.2 81 1.2 ESE 7 9 4 5 1025.7 - 0.0
18/12:00am 6.6 4.7 3.0 78 1.5 SSE 2 9 1 5 1025.6 1025.6 0.0
 
Date/Time
CST
Tmp

°C
App
Tmp
°C
Dew
Point
°C
Rel
Hum
%
Delta-T

°C
Wind Press
QNH
hPa
Press
MSL
hPa
Rain
since
9 am
mm
Dir
 
Spd
km/h
Gust
km/h
Spd
kts
Gust
kts
17/11:30pm 6.9 4.2 2.8 75 1.7 S 6 7 3 4 1025.5 - 0.0
17/11:00pm 7.5 5.2 2.9 72 1.9 SSE 4 6 2 3 1025.4 - 0.0
17/10:30pm 7.7 4.9 3.2 73 1.9 S 7 7 4 4 1025.3 - 0.0
17/10:00pm 8.5 5.9 3.1 69 2.3 S 6 7 3 4 1025.4 - 0.0
17/09:30pm 9.3 5.9 2.1 61 3.0 SSW 9 9 5 5 1025.3 - 0.0
17/09:00pm 9.5 5.8 2.4 61 3.0 SSE 11 13 6 7 1025.1 1025.1 0.0
17/08:30pm 10.2 6.1 2.1 57 3.4 S 13 19 7 10 1024.8 - 0.0
17/08:00pm 10.9 6.5 2.5 56 3.6 SSE 15 20 8 11 1024.5 - 0.0
17/07:30pm 11.2 6.8 2.9 56 3.6 S 15 19 8 10 1024.3 - 0.0

Latest Capital City Observations: Canberra | Sydney | Melbourne | Brisbane | Adelaide | Perth | Hobart | Darwin

Other Formats:

Comma delimited format used in spreadsheet applications
http://www.bom.gov.au/fwo/IDS60901/IDS60901.94672.axf

JavaScript Object Notation format (JSON) in row-major order
http://www.bom.gov.au/fwo/IDS60901/IDS60901.94672.json